Catanduanes Radar Site, Philippines
Current Conditions -  °F | °C
As of 12:00 PM on Sunday 21 Dec 2014 (Local Time) from RPLL Reporting Station
Few Clouds Few Clouds  
Wind Chill: 84°   Ceiling: Unl
Heat Index: 92°   Visibility: 6mi
Dew Point: 75°   Wind: 8mph
Humidity: 74%   Direction: 280°W
Pressure: 29.85"   Gusts: NA
Location:  13.98°N, 124.32°E
Report Text: RPLL 210400Z 28007KT 250V350 9999 FEW025 29/24 Q1011 NOSIG RMK A2985
Loading
Personal Weather Stations






























Interactive Weather Map New forecast layout! Learn more

10-Day Weather Forecast

Advertisements
Track Severe Weather on mobile